createdAt,value
2018-02-03T01:00:06.053Z,3.40
2018-02-03T01:02:33.264Z,3.00
2018-02-03T01:04:59.536Z,3.10
2018-02-03T01:07:26.162Z,3.10
2018-02-03T01:22:13.116Z,3.00
2018-02-03T01:24:39.236Z,2.90
2018-02-03T01:27:06.128Z,3.00
2018-02-03T01:29:32.244Z,2.90
2018-02-03T01:31:58.333Z,3.00
2018-02-03T01:34:24.431Z,3.10
2018-02-03T01:36:50.584Z,3.00
2018-02-03T01:39:16.742Z,3.00
2018-02-03T01:41:42.895Z,3.00
2018-02-03T01:44:08.991Z,3.10
2018-02-03T01:46:35.968Z,3.20
2018-02-03T01:49:02.095Z,3.20
2018-02-03T01:51:28.533Z,3.30
2018-02-03T01:53:54.653Z,3.30
2018-02-03T01:56:20.831Z,3.40
2018-02-03T01:58:46.912Z,3.30
2018-02-03T02:01:13.860Z,3.30
2018-02-03T02:03:40.675Z,3.20
2018-02-03T02:06:06.800Z,3.20
2018-02-03T02:08:32.917Z,3.30
2018-02-03T02:10:59.116Z,3.20
2018-02-03T02:13:26.433Z,3.20
2018-02-03T02:15:52.520Z,3.30
2018-02-03T02:18:18.646Z,3.20
2018-02-03T02:20:44.727Z,3.30
2018-02-03T02:23:10.823Z,3.30
2018-02-03T02:25:36.956Z,3.30
2018-02-03T02:28:03.047Z,3.30
2018-02-03T02:30:29.170Z,3.30
2018-02-03T02:32:55.263Z,3.30
2018-02-03T02:35:21.434Z,3.30
2018-02-03T02:37:47.563Z,3.30
2018-02-03T02:40:14.384Z,3.30
2018-02-03T02:42:40.511Z,3.30
2018-02-03T02:45:06.806Z,3.30
2018-02-03T02:47:33.627Z,3.40
2018-02-03T02:49:59.849Z,3.40
2018-02-03T02:52:25.967Z,3.50
2018-02-03T02:54:52.099Z,3.70
2018-02-03T02:57:18.204Z,3.70
2018-02-03T02:59:44.302Z,3.70
2018-02-03T03:02:10.519Z,3.70
2018-02-03T03:04:36.767Z,3.70
2018-02-03T03:07:03.070Z,3.80
2018-02-03T03:09:29.913Z,3.60
2018-02-03T03:11:56.069Z,3.70
2018-02-03T03:14:22.928Z,3.70
2018-02-03T03:16:49.757Z,3.70
2018-02-03T03:19:15.857Z,3.60
2018-02-03T03:21:41.988Z,3.70
2018-02-03T03:24:08.068Z,3.70
2018-02-03T03:26:34.147Z,3.80
2018-02-03T03:29:00.264Z,3.80
2018-02-03T03:31:27.099Z,3.70
2018-02-03T03:33:53.205Z,3.70
2018-02-03T03:36:19.321Z,3.70
2018-02-03T03:38:45.420Z,3.70
2018-02-03T03:41:11.511Z,3.70
2018-02-03T03:43:37.636Z,3.60
2018-02-03T03:46:03.740Z,3.70
2018-02-03T03:48:29.834Z,3.80
2018-02-03T03:50:55.943Z,3.80
2018-02-03T03:53:22.076Z,3.70
2018-02-03T03:55:48.169Z,3.70
2018-02-03T03:58:14.296Z,3.60
2018-02-03T04:00:40.392Z,3.70
2018-02-03T04:03:06.508Z,3.60
2018-02-03T04:05:33.367Z,3.80
2018-02-03T04:08:00.208Z,3.80
2018-02-03T04:10:26.320Z,3.70
2018-02-03T04:12:52.419Z,3.80
2018-02-03T04:15:18.513Z,3.70
2018-02-03T04:17:44.641Z,3.80
2018-02-03T04:20:10.754Z,3.90
2018-02-03T04:22:36.849Z,4.00
2018-02-03T04:25:03.681Z,3.90
2018-02-03T04:27:29.792Z,3.80
2018-02-03T04:29:55.880Z,3.80
2018-02-03T04:32:22.743Z,3.90
2018-02-03T04:34:49.620Z,3.80
2018-02-03T04:37:15.725Z,3.80
2018-02-03T04:39:42.565Z,3.90
2018-02-03T04:42:08.677Z,3.80
2018-02-03T04:44:34.760Z,3.90
2018-02-03T04:47:01.593Z,3.70
2018-02-03T04:49:27.700Z,3.60
2018-02-03T04:51:53.801Z,3.50
2018-02-03T04:54:19.937Z,3.50
2018-02-03T04:56:46.023Z,3.50
2018-02-03T04:59:12.109Z,3.50
2018-02-03T05:01:38.946Z,3.30
2018-02-03T05:04:05.785Z,3.30
2018-02-03T05:06:31.901Z,3.30
2018-02-03T05:08:58.001Z,3.50
2018-02-03T05:11:24.114Z,3.50
2018-02-03T05:13:50.221Z,3.40
2018-02-03T05:16:16.313Z,3.40
2018-02-03T05:18:42.427Z,3.50
2018-02-03T05:21:08.500Z,3.50
2018-02-03T05:23:34.604Z,3.50
2018-02-03T05:26:01.457Z,3.40
2018-02-03T05:28:27.562Z,3.40
2018-02-03T05:30:53.699Z,3.40
2018-02-03T05:33:19.828Z,3.40
2018-02-03T05:35:45.938Z,3.40
2018-02-03T05:38:12.052Z,3.40
2018-02-03T05:40:38.949Z,3.40
2018-02-03T05:43:05.046Z,3.40
2018-02-03T05:45:31.889Z,3.40
2018-02-03T05:47:58.016Z,3.40
2018-02-03T05:50:24.143Z,3.40
2018-02-03T05:52:50.285Z,3.30
2018-02-03T05:55:16.415Z,3.40
2018-02-03T05:57:42.528Z,3.40
2018-02-03T06:00:08.632Z,3.30
2018-02-03T06:02:35.436Z,3.30
2018-02-03T06:05:01.552Z,3.30
2018-02-03T06:07:27.657Z,3.30
2018-02-03T06:09:53.789Z,3.30
2018-02-03T06:12:20.617Z,3.40
2018-02-03T06:14:46.750Z,3.40
2018-02-03T06:17:12.831Z,3.40
2018-02-03T06:19:38.936Z,3.40
2018-02-03T06:22:05.053Z,3.40
2018-02-03T06:24:31.135Z,3.40
2018-02-03T06:26:57.977Z,3.30
2018-02-03T06:29:24.072Z,3.30
2018-02-03T06:31:50.160Z,3.40
2018-02-03T06:34:16.257Z,3.40
2018-02-03T06:36:42.345Z,3.30
2018-02-03T06:39:09.191Z,3.20
2018-02-03T06:41:36.042Z,3.20
2018-02-03T06:44:02.125Z,3.20
2018-02-03T06:46:28.225Z,3.20
2018-02-03T06:48:55.089Z,3.20
2018-02-03T06:51:21.948Z,3.20
2018-02-03T06:53:48.780Z,3.20
2018-02-03T06:56:14.953Z,3.20
2018-02-03T06:58:41.033Z,3.20
2018-02-03T07:01:07.112Z,3.20
2018-02-03T07:03:33.973Z,3.20
2018-02-03T07:06:00.064Z,3.20
2018-02-03T07:08:26.166Z,3.30
2018-02-03T07:10:52.286Z,3.30
2018-02-03T07:13:18.385Z,3.30
2018-02-03T07:15:44.472Z,3.20
2018-02-03T07:18:10.638Z,3.30
2018-02-03T07:20:36.737Z,3.30
2018-02-03T07:23:02.835Z,3.40
2018-02-03T07:25:28.957Z,3.40
2018-02-03T07:27:55.077Z,3.40
2018-02-03T07:30:21.202Z,3.40
2018-02-03T07:32:47.351Z,3.40
2018-02-03T07:35:13.436Z,3.50
2018-02-03T07:37:39.516Z,3.50
2018-02-03T07:40:05.637Z,3.60
2018-02-03T07:42:32.467Z,3.50
2018-02-03T07:44:58.545Z,3.50
2018-02-03T07:47:24.656Z,3.50
2018-02-03T07:49:51.495Z,3.50
2018-02-03T07:52:17.617Z,3.50
2018-02-03T07:54:43.792Z,3.50
2018-02-03T07:57:10.680Z,3.60
2018-02-03T07:59:36.772Z,3.50
2018-02-03T08:02:02.881Z,3.50
2018-02-03T08:04:29.180Z,3.50
2018-02-03T08:06:55.268Z,3.60
2018-02-03T08:09:21.380Z,3.50
2018-02-03T08:11:47.474Z,3.50
2018-02-03T08:14:14.292Z,3.50
2018-02-03T08:16:40.415Z,3.50
2018-02-03T08:19:06.496Z,3.50
2018-02-03T08:21:35.030Z,3.50
2018-02-03T08:24:11.024Z,3.60
2018-02-03T08:26:38.117Z,3.60
2018-02-03T08:29:04.210Z,3.70
2018-02-03T08:31:30.369Z,3.60
2018-02-03T08:33:56.457Z,3.70
2018-02-03T08:36:23.293Z,3.70
2018-02-03T08:38:50.171Z,3.70
2018-02-03T08:41:16.266Z,3.60
2018-02-03T08:43:42.353Z,3.60
2018-02-03T08:46:08.480Z,3.70
2018-02-03T08:48:34.563Z,3.60
2018-02-03T08:51:01.309Z,3.60
2018-02-03T08:53:27.442Z,3.50
2018-02-03T08:55:53.532Z,3.50
2018-02-03T08:58:20.408Z,3.40
2018-02-03T09:00:46.588Z,3.40
2018-02-03T09:03:12.682Z,3.40
2018-02-03T09:05:38.765Z,3.40
2018-02-03T09:08:04.864Z,3.30
2018-02-03T09:10:30.945Z,3.40
2018-02-03T09:12:57.051Z,3.30
2018-02-03T09:15:23.192Z,3.20
2018-02-03T09:17:49.276Z,3.30
2018-02-03T09:20:15.391Z,3.20
2018-02-03T09:22:41.509Z,3.30
2018-02-03T09:25:07.588Z,3.40
2018-02-03T09:27:33.676Z,3.60
2018-02-03T09:29:59.784Z,3.50
2018-02-03T09:32:25.852Z,3.30
2018-02-03T09:34:51.952Z,3.30
2018-02-03T09:37:18.140Z,3.40
2018-02-03T09:39:44.261Z,3.60
2018-02-03T09:47:06.066Z,3.60
2018-02-03T09:49:32.135Z,3.50
2018-02-03T09:51:58.233Z,3.40
2018-02-03T09:54:24.304Z,3.40
2018-02-03T09:56:50.421Z,3.50
2018-02-03T09:59:16.581Z,3.60
2018-02-03T10:01:42.704Z,3.60
2018-02-03T10:04:08.785Z,3.60
2018-02-03T10:06:34.874Z,3.70
2018-02-03T10:09:00.944Z,3.60
2018-02-03T10:11:27.065Z,3.50
2018-02-03T10:13:53.187Z,3.60
2018-02-03T10:16:19.263Z,3.50
2018-02-03T10:18:45.541Z,3.30
2018-02-03T10:21:11.783Z,3.40
2018-02-03T10:23:37.865Z,3.40
2018-02-03T10:26:03.945Z,3.50
2018-02-03T10:28:30.782Z,3.50
2018-02-03T10:30:56.864Z,3.50
2018-02-03T10:33:23.425Z,3.40
2018-02-03T10:35:49.657Z,3.50
2018-02-03T10:38:15.732Z,3.40
2018-02-03T10:40:41.834Z,3.60
2018-02-03T10:43:07.928Z,3.50
2018-02-03T10:45:34.027Z,3.30
2018-02-03T10:48:00.108Z,3.30
2018-02-03T10:50:27.011Z,3.50
2018-02-03T10:52:53.240Z,3.50
2018-02-03T10:55:19.320Z,3.70
2018-02-03T10:57:45.504Z,3.60
2018-02-03T11:00:11.648Z,3.50
